Latest Weather Observations for Thevenard

IDS60801

Issued at 7:01 pm CDT Wednesday 7 December 2016 (issued every 30 minutes, with the page automatically refreshed every 10 minutes)

About weather observations | Map of weather stations | Latest weather observations for SA | Other Formats
Station Details ID: 018200 Name: THEVENARD WIND Lat: -32.18 Lon: 133.63 Height: 8.54 m
Data from the previous 72 hours. | See also: Recent months for locations in South Australia
Date/Time
CDT
Temp
°C
App
Temp
°C
Dew
Point
°C
Rel
Hum
%
Delta-T
°C
Wind Press
QNH
hPa
Press
MSL
hPa
Rain since
9am
mm
Dir  Spd
km/h
Gust
km/h
Spd
kts
Gust
kts
07/06:30pm - - - - - ESE 13 15 7 8 - - -
07/06:00pm - - - - - SE 17 19 9 10 - - -
07/05:30pm - - - - - ESE 11 17 6 9 - - -
07/05:00pm - - - - - SSE 9 13 5 7 - - -
07/04:30pm - - - - - SSW 22 24 12 13 - - -
07/04:00pm - - - - - SSE 19 20 10 11 - - -
07/03:30pm - - - - - SSE 20 24 11 13 - - -
07/03:00pm - - - - - SSE 19 24 10 13 - - -
07/02:30pm - - - - - S 13 17 7 9 - - -
07/02:00pm - - - - - SSE 11 15 6 8 - - -
07/01:30pm - - - - - SSE 15 15 8 8 - - -
07/01:00pm - - - - - SE 13 15 7 8 - - -
07/12:30pm - - - - - SSE 11 11 6 6 - - -
07/12:00pm - - - - - SSE 11 11 6 6 - - -
07/11:30am - - - - - SSE 13 15 7 8 - - -
07/11:00am - - - - - SSE 11 11 6 6 - - -
07/10:30am - - - - - SE 9 11 5 6 - - -
07/10:00am - - - - - SE 9 11 5 6 - - -
07/09:30am - - - - - SE 11 13 6 7 - - -
07/09:00am - - - - - SE 9 11 5 6 - - -
07/08:30am - - - - - ESE 9 11 5 6 - - -
07/08:00am - - - - - SE 9 13 5 7 - - -
07/07:30am - - - - - SE 13 17 7 9 - - -
07/07:00am - - - - - E 7 9 4 5 - - -
07/06:30am - - - - - E 6 7 3 4 - - -
07/06:00am - - - - - E 6 9 3 5 - - -
07/05:30am - - - - - ESE 7 11 4 6 - - -
07/05:00am - - - - - E 9 13 5 7 - - -
07/04:30am - - - - - ENE 9 15 5 8 - - -
07/04:00am - - - - - ESE 13 17 7 9 - - -
07/03:30am - - - - - ESE 13 20 7 11 - - -
07/03:00am - - - - - ESE 9 11 5 6 - - -
07/02:30am - - - - - ESE 13 17 7 9 - - -
07/02:00am - - - - - E 19 24 10 13 - - -
07/01:30am - - - - - ESE 24 28 13 15 - - -
07/01:00am - - - - - ESE 20 26 11 14 - - -
07/12:30am - - - - - ESE 20 28 11 15 - - -
07/12:00am - - - - - SE 26 32 14 17 - - -
 
Date/Time
CDT
Temp
°C
App
Temp
°C
Dew
Point
°C
Rel
Hum
%
Delta-T
°C
Wind Press
QNH
hPa
Press
MSL
hPa
Rain since
9am
mm
Dir  Spd
km/h
Gust
km/h
Spd
kts
Gust
kts
06/11:30pm - - - - - ESE 26 32 14 17 - - -
06/11:00pm - - - - - SE 32 37 17 20 - - -
06/10:30pm - - - - - SE 32 37 17 20 - - -
06/10:00pm - - - - - SE 35 43 19 23 - - -
06/09:30pm - - - - - SSE 37 46 20 25 - - -
06/09:00pm - - - - - SSE 41 46 22 25 - - -
06/08:30pm - - - - - SSE 35 41 19 22 - - -
06/08:00pm - - - - - SSE 32 37 17 20 - - -
06/07:30pm - - - - - SSE 30 35 16 19 - - -
06/07:00pm - - - - - SSE 32 35 17 19 - - -
06/06:30pm - - - - - SSE 33 39 18 21 - - -
06/06:00pm - - - - - SSE 32 35 17 19 - - -
06/05:30pm - - - - - SSE 30 33 16 18 - - -
06/05:00pm - - - - - SSE 30 33 16 18 - - -
06/04:30pm - - - - - SSE 28 32 15 17 - - -
06/04:00pm - - - - - SSE 28 32 15 17 - - -
06/03:30pm - - - - - SSE 26 30 14 16 - - -
06/03:00pm - - - - - SSE 26 32 14 17 - - -
06/02:30pm - - - - - SSE 28 32 15 17 - - -
06/02:00pm - - - - - SSE 24 28 13 15 - - -
06/01:30pm - - - - - SSE 24 28 13 15 - - -
06/01:00pm - - - - - SSE 24 28 13 15 - - -
06/12:30pm - - - - - SSE 17 20 9 11 - - -
06/12:00pm - - - - - SE 17 20 9 11 - - -
06/11:30am - - - - - SE 17 22 9 12 - - -
06/11:00am - - - - - SE 17 20 9 11 - - -
06/10:30am - - - - - SE 20 26 11 14 - - -
06/10:00am - - - - - SSE 20 24 11 13 - - -
06/09:30am - - - - - SSE 19 24 10 13 - - -
06/09:00am - - - - - S 19 24 10 13 - - -
06/08:30am - - - - - SSE 19 24 10 13 - - -
06/08:00am - - - - - SSE 9 15 5 8 - - -
06/07:30am - - - - - ESE 9 13 5 7 - - -
06/07:00am - - - - - NE 13 19 7 10 - - -
06/06:30am - - - - - ENE 22 28 12 15 - - -
06/06:00am - - - - - ENE 30 33 16 18 - - -
06/05:30am - - - - - NE 28 32 15 17 - - -
06/05:00am - - - - - ENE 17 22 9 12 - - -
06/04:30am - - - - - S 2 6 1 3 - - -
06/04:00am - - - - - SE 4 6 2 3 - - -
06/03:30am - - - - - SSW 13 17 7 9 - - -
06/03:00am - - - - - S 19 33 10 18 - - -
06/02:30am - - - - - ESE 20 30 11 16 - - -
06/02:00am - - - - - SE 26 33 14 18 - - -
06/01:30am - - - - - SE 30 35 16 19 - - -
06/01:00am - - - - - SE 33 41 18 22 - - -
06/12:30am - - - - - SSE 44 57 24 31 - - -
06/12:00am - - - - - SSE 52 59 28 32 - - -
 
Date/Time
CDT
Temp
°C
App
Temp
°C
Dew
Point
°C
Rel
Hum
%
Delta-T
°C
Wind Press
QNH
hPa
Press
MSL
hPa
Rain since
9am
mm
Dir  Spd
km/h
Gust
km/h
Spd
kts
Gust
kts
05/11:30pm - - - - - SSE 39 46 21 25 - - -
05/11:00pm - - - - - SSE 30 35 16 19 - - -
05/10:30pm - - - - - SE 30 35 16 19 - - -
05/10:00pm - - - - - SE 32 35 17 19 - - -
05/09:30pm - - - - - SE 30 35 16 19 - - -
05/09:00pm - - - - - SE 30 33 16 18 - - -
05/08:30pm - - - - - SE 28 32 15 17 - - -
05/08:00pm - - - - - SSE 28 33 15 18 - - -
05/07:30pm - - - - - SSE 30 37 16 20 - - -
05/07:00pm - - - - - SSE 30 35 16 19 - - -
05/06:30pm - - - - - SSE 32 39 17 21 - - -
05/06:00pm - - - - - SSE 32 37 17 20 - - -
05/05:30pm - - - - - SSE 32 37 17 20 - - -
05/05:00pm - - - - - SSE 32 33 17 18 - - -
05/04:30pm - - - - - SSE 30 33 16 18 - - -
05/04:00pm - - - - - SSE 28 35 15 19 - - -
05/03:30pm - - - - - SSE 30 37 16 20 - - -
05/03:00pm - - - - - SSE 28 32 15 17 - - -
05/02:30pm - - - - - SSE 28 32 15 17 - - -
05/02:00pm - - - - - SSE 24 35 13 19 - - -
05/01:30pm - - - - - SE 28 37 15 20 - - -
05/01:00pm - - - - - SSE 32 39 17 21 - - -
05/12:30pm - - - - - SSE 20 24 11 13 - - -
05/12:00pm - - - - - SSE 19 24 10 13 - - -
05/11:30am - - - - - SSE 17 20 9 11 - - -
05/11:00am - - - - - SSE 13 17 7 9 - - -
05/10:30am - - - - - ESE 17 22 9 12 - - -
05/10:00am - - - - - ESE 19 28 10 15 - - -
05/09:30am - - - - - SE 17 22 9 12 - - -
05/09:00am - - - - - ESE 19 26 10 14 - - -
05/08:30am - - - - - SE 20 26 11 14 - - -
05/08:00am - - - - - SSE 22 26 12 14 - - -
05/07:30am - - - - - SSE 22 28 12 15 - - -
05/07:00am - - - - - SSE 22 28 12 15 - - -
05/06:30am - - - - - SSE 22 30 12 16 - - -
05/06:00am - - - - - SSE 26 33 14 18 - - -
05/05:30am - - - - - SSE 26 35 14 19 - - -
05/05:00am - - - - - SE 24 30 13 16 - - -
05/04:30am - - - - - SE 26 33 14 18 - - -
05/04:00am - - - - - SSE 22 32 12 17 - - -
05/03:30am - - - - - SSE 26 33 14 18 - - -
05/03:00am - - - - - SSE 32 39 17 21 - - -
05/02:30am - - - - - SSE 28 33 15 18 - - -
05/02:00am - - - - - SSE 30 37 16 20 - - -
05/01:30am - - - - - SSE 30 37 16 20 - - -
05/01:00am - - - - - SSE 26 35 14 19 - - -
05/12:30am - - - - - SSE 30 37 16 20 - - -
05/12:00am - - - - - S 28 33 15 18 - - -
 
Date/Time
CDT
Temp
°C
App
Temp
°C
Dew
Point
°C
Rel
Hum
%
Delta-T
°C
Wind Press
QNH
hPa
Press
MSL
hPa
Rain since
9am
mm
Dir  Spd
km/h
Gust
km/h
Spd
kts
Gust
kts
04/11:30pm - - - - - SSE 26 32 14 17 - - -
04/11:00pm - - - - - SSE 28 33 15 18 - - -
04/10:30pm - - - - - SSE 32 39 17 21 - - -
04/10:00pm - - - - - S 32 37 17 20 - - -
04/09:30pm - - - - - S 30 37 16 20 - - -
04/09:00pm - - - - - S 28 32 15 17 - - -
04/08:30pm - - - - - S 30 37 16 20 - - -
04/08:00pm - - - - - S 30 37 16 20 - - -
04/07:30pm - - - - - S 33 43 18 23 - - -

Other Formats:

Comma delimited format used in spreadsheet applications
http://www.bom.gov.au/fwo/IDS60801/IDS60801.95653.axf

JavaScript Object Notation format (JSON) in row-major order
http://www.bom.gov.au/fwo/IDS60801/IDS60801.95653.json